createdAt,value
2018-09-18T00:00:00.494Z,77.87
2018-09-18T00:01:00.441Z,78.22
2018-09-18T00:02:00.425Z,77.57
2018-09-18T00:03:00.416Z,76.69
2018-09-18T00:04:00.409Z,77.67
2018-09-18T00:05:00.390Z,77.40
2018-09-18T00:06:00.399Z,76.90
2018-09-18T00:07:00.368Z,77.30
2018-09-18T00:08:00.369Z,78.83
2018-09-18T00:09:00.367Z,78.12
2018-09-18T00:10:00.358Z,77.81
2018-09-18T00:11:00.332Z,78.22
2018-09-18T00:12:00.312Z,78.42
2018-09-18T00:13:00.302Z,78.02
2018-09-18T00:14:00.299Z,78.32
2018-09-18T00:15:00.299Z,79.54
2018-09-18T00:16:00.289Z,79.14
2018-09-18T00:17:00.259Z,79.14
2018-09-18T00:18:00.266Z,79.24
2018-09-18T00:19:00.239Z,78.63
2018-09-18T00:20:00.254Z,79.14
2018-09-18T00:21:00.213Z,79.64
2018-09-18T00:22:00.214Z,79.54
2018-09-18T00:23:00.198Z,75.98
2018-09-18T00:24:00.200Z,76.01
2018-09-18T00:25:00.177Z,78.02
2018-09-18T00:26:00.184Z,78.87
2018-09-18T00:27:00.152Z,78.53
2018-09-18T00:28:00.148Z,77.55
2018-09-18T00:29:00.129Z,78.66
2018-09-18T00:30:00.132Z,79.68
2018-09-18T00:31:00.103Z,79.38
2018-09-18T00:32:00.092Z,79.38
2018-09-18T00:33:00.086Z,79.68
2018-09-18T00:34:00.086Z,79.38
2018-09-18T00:35:00.088Z,77.75
2018-09-18T00:36:00.052Z,77.85
2018-09-18T00:37:00.042Z,79.17
2018-09-18T00:38:00.026Z,79.68
2018-09-18T00:39:00.017Z,79.68
2018-09-18T00:40:00.011Z,79.38
2018-09-18T00:41:00.024Z,78.30
2018-09-18T00:41:59.988Z,77.07
2018-09-18T00:42:59.972Z,78.26
2018-09-18T00:43:59.969Z,78.30
2018-09-18T00:44:59.952Z,77.07
2018-09-18T00:46:00.009Z,77.58
2018-09-18T00:46:59.935Z,79.58
2018-09-18T00:47:59.921Z,79.93
2018-09-18T00:48:59.908Z,79.48
2018-09-18T00:49:59.895Z,79.62
2018-09-18T00:50:59.884Z,78.70
2018-09-18T00:51:59.915Z,79.32
2018-09-18T00:52:59.865Z,80.13
2018-09-18T00:53:59.858Z,79.62
2018-09-18T00:54:59.841Z,79.62
2018-09-18T00:55:59.823Z,79.41
2018-09-18T00:56:59.817Z,80.74
2018-09-18T00:57:59.834Z,78.19
2018-09-18T00:58:59.795Z,79.21
2018-09-18T00:59:59.779Z,80.84
2018-09-18T01:00:59.770Z,79.72
2018-09-18T01:01:59.781Z,78.60
2018-09-18T01:02:59.748Z,78.23
2018-09-18T01:03:59.771Z,79.41
2018-09-18T01:04:59.742Z,79.86
2018-09-18T01:05:59.713Z,79.86
2018-09-18T01:06:59.722Z,80.02
2018-09-18T01:07:59.700Z,79.45
2018-09-18T01:08:59.681Z,79.14
2018-09-18T01:09:59.696Z,79.35
2018-09-18T01:10:59.678Z,79.25
2018-09-18T01:11:59.650Z,79.86
2018-09-18T01:12:59.638Z,78.94
2018-09-18T01:13:59.626Z,78.33
2018-09-18T01:14:59.630Z,80.16
2018-09-18T01:15:59.659Z,79.04
2018-09-18T01:16:59.599Z,79.25
2018-09-18T01:17:59.582Z,79.69
2018-09-18T01:18:59.591Z,81.02
2018-09-18T01:19:59.580Z,82.35
2018-09-18T01:20:59.568Z,80.88
2018-09-18T01:21:59.549Z,81.90
2018-09-18T01:22:59.522Z,80.68
2018-09-18T01:23:59.515Z,81.49
2018-09-18T01:24:59.523Z,80.82
2018-09-18T01:25:59.509Z,80.71
2018-09-18T01:26:59.483Z,80.30
2018-09-18T01:27:59.484Z,80.41
2018-09-18T01:28:59.467Z,79.49
2018-09-18T01:29:59.444Z,79.69
2018-09-18T01:30:59.435Z,80.51
2018-09-18T01:31:59.447Z,80.20
2018-09-18T01:32:59.415Z,79.18
2018-09-18T01:33:59.437Z,78.47
2018-09-18T01:34:59.397Z,80.61
2018-09-18T01:35:59.382Z,81.43
2018-09-18T01:36:59.385Z,80.20
2018-09-18T01:37:59.357Z,79.80
2018-09-18T01:38:59.348Z,79.39
2018-09-18T01:39:59.342Z,79.39
2018-09-18T01:40:59.322Z,79.28
2018-09-18T01:41:59.342Z,78.16
2018-09-18T01:42:59.307Z,80.61
2018-09-18T01:43:59.297Z,80.00
2018-09-18T01:44:59.281Z,80.91
2018-09-18T01:45:59.278Z,81.84
2018-09-18T01:46:59.261Z,80.96
2018-09-18T01:47:59.273Z,79.63
2018-09-18T01:48:59.233Z,79.22
2018-09-18T01:49:59.221Z,80.34
2018-09-18T01:50:59.221Z,79.83
2018-09-18T01:51:59.211Z,82.08
2018-09-18T01:52:59.219Z,81.87
2018-09-18T01:53:59.185Z,80.96
2018-09-18T01:54:59.168Z,81.46
2018-09-18T01:55:59.171Z,82.18
2018-09-18T01:56:59.143Z,82.08
2018-09-18T01:57:59.135Z,82.08
2018-09-18T01:58:59.176Z,81.46
2018-09-18T01:59:59.114Z,79.32
2018-09-18T02:00:59.097Z,80.04
2018-09-18T02:01:59.092Z,80.55
2018-09-18T02:02:59.082Z,80.34
2018-09-18T02:03:59.087Z,81.77
2018-09-18T02:04:59.081Z,80.75
2018-09-18T02:05:59.046Z,80.96
2018-09-18T02:06:59.033Z,80.04
2018-09-18T02:07:59.055Z,82.39
2018-09-18T02:08:59.012Z,81.26
2018-09-18T02:09:59.018Z,82.18
2018-09-18T02:10:58.987Z,81.67
2018-09-18T02:11:58.993Z,80.65
2018-09-18T02:12:58.967Z,81.98
2018-09-18T02:13:58.976Z,81.57
2018-09-18T02:14:58.950Z,81.05
2018-09-18T02:15:58.941Z,82.18
2018-09-18T02:16:58.932Z,80.96
2018-09-18T02:17:58.920Z,81.37
2018-09-18T02:18:58.915Z,80.44
2018-09-18T02:19:58.888Z,81.40
2018-09-18T02:20:58.874Z,80.89
2018-09-18T02:21:58.869Z,81.87
2018-09-18T02:22:58.925Z,80.34
2018-09-18T02:23:58.859Z,79.83
2018-09-18T02:24:58.838Z,79.97
2018-09-18T02:25:58.825Z,79.73
2018-09-18T02:26:58.809Z,80.18
2018-09-18T02:27:58.802Z,79.77
2018-09-18T02:28:58.820Z,80.58
2018-09-18T02:29:58.785Z,79.46
2018-09-18T02:30:58.764Z,78.23
2018-09-18T02:31:58.772Z,78.95
2018-09-18T02:32:58.739Z,80.58
2018-09-18T02:33:58.730Z,81.71
2018-09-18T02:34:58.756Z,81.60
2018-09-18T02:35:58.706Z,80.89
2018-09-18T02:36:58.706Z,81.51
2018-09-18T02:37:58.690Z,80.48
2018-09-18T02:38:58.678Z,79.77
2018-09-18T02:39:58.668Z,77.83
2018-09-18T02:40:58.677Z,79.25
2018-09-18T02:41:58.643Z,82.83
2018-09-18T02:42:58.638Z,82.32
2018-09-18T02:43:58.641Z,80.07
2018-09-18T02:44:58.611Z,80.48
2018-09-18T02:45:58.597Z,81.71
2018-09-18T02:46:58.617Z,80.18
2018-09-18T02:47:58.574Z,79.19
2018-09-18T02:48:58.586Z,79.60
2018-09-18T02:49:58.548Z,79.29
2018-09-18T02:50:58.538Z,79.91
2018-09-18T02:51:58.525Z,79.66
2018-09-18T02:52:58.524Z,79.97
2018-09-18T02:53:58.514Z,79.70
2018-09-18T02:54:58.534Z,78.38
2018-09-18T02:55:58.485Z,77.86
2018-09-18T02:56:58.481Z,79.91
2018-09-18T02:57:58.461Z,80.93
2018-09-18T02:58:58.494Z,81.85
2018-09-18T02:59:58.457Z,79.29
2018-09-18T03:00:58.468Z,77.45
2018-09-18T03:01:58.424Z,77.86
2018-09-18T03:02:58.407Z,79.29
2018-09-18T03:03:58.399Z,79.74
2018-09-18T03:04:58.408Z,80.35
2018-09-18T03:05:58.393Z,81.58
2018-09-18T03:06:58.360Z,81.95
2018-09-18T03:07:58.348Z,82.46
2018-09-18T03:08:58.341Z,82.15
2018-09-18T03:09:58.333Z,83.69
2018-09-18T03:10:58.344Z,83.79
2018-09-18T03:11:58.308Z,84.34
2018-09-18T03:12:58.298Z,83.62
2018-09-18T03:13:58.321Z,84.03
2018-09-18T03:14:58.285Z,82.97
2018-09-18T03:15:58.264Z,82.60
2018-09-18T03:16:58.296Z,82.87
2018-09-18T03:17:58.243Z,81.74
2018-09-18T03:18:58.237Z,82.81
2018-09-18T03:19:58.221Z,81.65
2018-09-18T03:20:58.236Z,83.73
2018-09-18T03:21:58.194Z,83.48
2018-09-18T03:23:06.955Z,82.46
2018-09-18T03:23:58.452Z,83.83
2018-09-18T03:24:58.185Z,83.28
2018-09-18T03:25:58.226Z,82.40
2018-09-18T03:26:58.161Z,81.74
2018-09-18T03:27:58.181Z,82.36
2018-09-18T03:28:58.153Z,82.97
2018-09-18T03:29:58.112Z,82.36
2018-09-18T03:30:58.124Z,79.80
2018-09-18T03:31:58.090Z,81.79
2018-09-18T03:32:58.106Z,81.88
2018-09-18T03:33:58.088Z,81.17
2018-09-18T03:34:58.056Z,81.38
2018-09-18T03:35:58.045Z,81.99
2018-09-18T03:36:58.033Z,82.29
2018-09-18T03:37:58.019Z,82.91
2018-09-18T03:38:58.043Z,82.43
2018-09-18T03:39:58.004Z,81.48
2018-09-18T03:40:57.990Z,82.40
2018-09-18T03:41:57.982Z,82.81
2018-09-18T03:42:57.964Z,83.32
2018-09-18T03:43:58.046Z,81.79
2018-09-18T03:44:57.956Z,81.79
2018-09-18T03:45:57.931Z,82.91
2018-09-18T03:46:57.922Z,81.99
2018-09-18T03:47:57.936Z,82.81
2018-09-18T03:48:57.914Z,81.79
2018-09-18T03:49:57.915Z,82.40
2018-09-18T03:50:57.891Z,83.32
2018-09-18T03:51:57.864Z,84.03
2018-09-18T03:52:57.858Z,82.29
2018-09-18T03:53:57.845Z,81.93
2018-09-18T03:54:57.857Z,81.68
2018-09-18T03:55:57.826Z,80.87
2018-09-18T03:56:57.828Z,81.48
2018-09-18T03:57:57.801Z,81.68
2018-09-18T03:58:57.786Z,80.97
2018-09-18T03:59:57.778Z,80.69
2018-09-18T04:00:57.800Z,83.56
2018-09-18T04:01:57.777Z,82.20
2018-09-18T04:02:57.838Z,82.95
2018-09-18T04:03:57.735Z,82.43
2018-09-18T04:06:54.935Z,83.56
2018-09-18T04:07:54.399Z,83.76
2018-09-18T04:08:54.370Z,83.66
2018-09-18T04:09:54.261Z,83.25
2018-09-18T04:10:54.217Z,83.73
2018-09-18T04:11:54.202Z,83.93
2018-09-18T04:30:43.644Z,83.66
2018-09-18T04:31:43.395Z,82.03
2018-09-18T04:35:18.872Z,82.54
2018-09-18T04:37:44.955Z,83.66
2018-09-18T04:38:51.514Z,83.36
2018-09-18T04:39:44.783Z,81.93
2018-09-18T04:43:55.278Z,83.56
2018-09-18T04:44:54.924Z,82.64
2018-09-18T04:45:54.939Z,83.87
2018-09-18T04:46:54.885Z,83.56
2018-09-18T04:47:54.811Z,82.34
2018-09-18T04:48:54.826Z,83.91
2018-09-18T04:49:54.850Z,82.54
2018-09-18T04:50:54.793Z,81.65
2018-09-18T04:51:54.766Z,81.76
2018-09-18T04:52:54.749Z,82.07
2018-09-18T04:53:54.746Z,82.37
2018-09-18T04:54:54.797Z,82.48
2018-09-18T04:55:54.760Z,82.03
2018-09-18T04:56:54.722Z,83.09
2018-09-18T04:57:54.696Z,82.17
2018-09-18T04:58:54.720Z,83.81
2018-09-18T04:59:54.674Z,84.28
2018-09-18T05:00:54.671Z,85.50
2018-09-18T05:01:54.690Z,83.76
2018-09-18T05:02:54.639Z,82.57
2018-09-18T05:03:54.627Z,82.84
2018-09-18T05:04:54.643Z,83.91
2018-09-18T05:05:54.608Z,82.89
2018-09-18T05:06:54.620Z,80.43
2018-09-18T05:07:54.588Z,82.27
2018-09-18T05:08:54.572Z,82.98
2018-09-18T05:09:54.577Z,84.11
2018-09-18T05:10:54.578Z,84.31
2018-09-18T05:11:54.570Z,84.01
2018-09-18T05:12:54.570Z,83.81
2018-09-18T05:13:54.527Z,84.69
2018-09-18T05:14:54.510Z,84.22
2018-09-18T05:15:54.498Z,85.61
2018-09-18T05:16:54.487Z,83.81
2018-09-18T05:17:55.238Z,85.34
2018-09-18T05:18:54.465Z,85.44
2018-09-18T05:19:54.513Z,85.55
2018-09-18T05:20:54.452Z,83.46
2018-09-18T05:21:54.431Z,83.81
2018-09-18T05:22:54.425Z,84.22
2018-09-18T05:23:54.435Z,83.81
2018-09-18T05:24:54.398Z,84.01
2018-09-18T05:25:54.414Z,83.60
2018-09-18T05:26:54.396Z,83.76
2018-09-18T05:27:54.372Z,84.07
2018-09-18T05:28:54.415Z,84.22
2018-09-18T05:31:13.805Z,83.87
2018-09-18T05:32:13.455Z,84.48
2018-09-18T05:33:13.396Z,86.12
2018-09-18T05:34:13.351Z,85.10
2018-09-18T05:35:23.113Z,84.89
2018-09-18T05:36:21.800Z,85.30
2018-09-18T05:37:13.394Z,85.30
2018-09-18T05:38:13.343Z,85.30
2018-09-18T05:39:13.273Z,83.76
2018-09-18T05:40:21.840Z,85.30
2018-09-18T05:41:13.313Z,84.79
2018-09-18T05:42:13.256Z,85.61
2018-09-18T05:43:13.290Z,85.91
2018-09-18T05:44:13.230Z,87.04
2018-09-18T05:45:13.222Z,86.94
2018-09-18T05:46:13.217Z,86.02
2018-09-18T05:47:13.184Z,87.10
2018-09-18T05:48:13.249Z,87.85
2018-09-18T05:49:13.164Z,87.51
2018-09-18T05:50:13.164Z,87.30
2018-09-18T05:51:13.156Z,86.69
2018-09-18T05:52:13.127Z,87.20
2018-09-18T05:53:13.118Z,85.67
2018-09-18T05:54:13.122Z,85.88
2018-09-18T05:55:13.108Z,85.97
2018-09-18T05:56:13.122Z,85.88
2018-09-18T05:57:13.079Z,85.36
2018-09-18T05:58:13.066Z,85.97
2018-09-18T05:59:13.114Z,86.24
2018-09-18T06:00:13.052Z,87.88
2018-09-18T06:01:13.058Z,87.26
2018-09-18T06:02:13.040Z,87.57
2018-09-18T06:03:13.008Z,87.06
2018-09-18T06:04:12.997Z,87.37
2018-09-18T06:05:12.992Z,88.39
2018-09-18T06:06:12.983Z,88.49
2018-09-18T06:07:12.982Z,87.84
2018-09-18T06:08:12.970Z,88.79
2018-09-18T06:09:12.941Z,87.23
2018-09-18T06:10:12.932Z,87.63
2018-09-18T06:11:12.948Z,87.23
2018-09-18T06:12:12.910Z,87.53
2018-09-18T06:13:12.917Z,87.32
2018-09-18T06:14:12.892Z,86.82
2018-09-18T06:15:12.876Z,86.82
2018-09-18T06:16:12.871Z,86.91
2018-09-18T06:17:12.876Z,87.08
2018-09-18T06:18:12.861Z,86.77
2018-09-18T06:19:13.062Z,86.98
2018-09-18T06:20:12.823Z,87.45
2018-09-18T06:21:12.814Z,86.77
2018-09-18T06:22:12.837Z,87.04
2018-09-18T06:23:12.817Z,87.14
2018-09-18T06:24:12.788Z,86.22
2018-09-18T06:25:12.773Z,85.00
2018-09-18T06:26:12.813Z,85.27
2018-09-18T06:27:12.757Z,84.55
2018-09-18T06:28:12.758Z,83.84
2018-09-18T06:29:12.724Z,84.45
2018-09-18T06:30:12.709Z,84.25
2018-09-18T06:31:12.703Z,84.11
2018-09-18T06:32:12.703Z,83.59
2018-09-18T06:33:12.705Z,83.49
2018-09-18T06:34:12.695Z,83.29
2018-09-18T06:35:12.661Z,83.09
2018-09-18T06:36:12.649Z,83.09
2018-09-18T06:37:12.645Z,83.59
2018-09-18T06:38:12.631Z,83.56
2018-09-18T06:39:12.614Z,83.45
2018-09-18T06:40:12.651Z,83.42
2018-09-18T06:41:12.593Z,82.50
2018-09-18T06:42:12.603Z,82.70
2018-09-18T06:43:12.568Z,82.80
2018-09-18T06:44:12.562Z,83.78
2018-09-18T06:45:12.547Z,83.17
2018-09-18T06:46:12.561Z,83.48
2018-09-18T06:47:12.530Z,82.66
2018-09-18T06:48:12.518Z,83.44
2018-09-18T06:49:13.283Z,83.03
2018-09-18T06:50:14.252Z,83.44
2018-09-18T06:51:13.224Z,83.20
2018-09-18T06:52:12.670Z,83.50
2018-09-18T06:53:12.614Z,83.40
2018-09-18T06:54:12.537Z,82.48
2018-09-18T06:55:12.545Z,82.75
2018-09-18T06:56:12.869Z,82.45
2018-09-18T06:57:12.512Z,83.26
2018-09-18T06:58:12.581Z,82.31
2018-09-18T06:59:12.599Z,82.00
2018-09-18T07:00:12.491Z,81.56
2018-09-18T07:01:12.400Z,81.35
2018-09-18T07:02:12.364Z,80.84
2018-09-18T07:03:12.359Z,80.50
2018-09-18T07:04:12.347Z,80.19
2018-09-18T07:05:12.325Z,79.79
2018-09-18T07:06:12.315Z,80.26
2018-09-18T07:07:12.325Z,80.16
2018-09-18T07:08:12.293Z,80.46
2018-09-18T07:09:12.281Z,79.51
2018-09-18T07:10:12.274Z,80.43
2018-09-18T07:11:12.273Z,78.50
2018-09-18T07:12:12.274Z,77.25
2018-09-18T07:13:12.255Z,77.04
2018-09-18T07:14:12.230Z,76.29
2018-09-18T07:15:12.228Z,77.31
2018-09-18T07:16:12.255Z,76.60
2018-09-18T07:17:12.279Z,76.97
2018-09-18T07:18:12.235Z,76.87
2018-09-18T07:19:12.177Z,76.93
2018-09-18T07:20:12.164Z,74.91
2018-09-18T07:21:12.163Z,73.15
2018-09-18T07:22:12.167Z,75.07
2018-09-18T07:23:12.244Z,75.14
2018-09-18T07:24:12.117Z,73.32
2018-09-18T07:25:12.128Z,72.17
2018-09-18T07:26:12.100Z,71.13
2018-09-18T07:27:12.100Z,71.94
2018-09-18T07:28:12.071Z,71.44
2018-09-18T07:29:12.097Z,70.19
2018-09-18T07:30:12.059Z,69.78
2018-09-18T07:31:12.042Z,70.39
2018-09-18T07:32:12.030Z,71.00
2018-09-18T07:33:12.021Z,71.47
2018-09-18T07:34:12.062Z,69.95
2018-09-18T07:35:12.005Z,69.92
2018-09-18T07:36:12.065Z,70.02
2018-09-18T07:37:11.987Z,68.57
2018-09-18T07:38:11.961Z,69.79
2018-09-18T07:39:11.967Z,68.37
2018-09-18T07:40:11.970Z,69.79
2018-09-18T07:41:11.937Z,69.05
2018-09-18T07:42:11.935Z,67.20
2018-09-18T07:43:11.912Z,66.90
2018-09-18T07:44:11.899Z,67.91
2018-09-18T07:45:11.918Z,68.61
2018-09-18T07:46:11.890Z,67.68
2018-09-18T07:47:11.884Z,67.88
2018-09-18T07:48:11.852Z,68.88
2018-09-18T07:49:11.849Z,66.83
2018-09-18T07:50:11.855Z,63.28
2018-09-18T07:51:11.831Z,66.47
2018-09-18T07:52:11.948Z,65.06
2018-09-18T07:53:11.896Z,66.57
2018-09-18T07:54:11.975Z,63.62
2018-09-18T07:55:11.912Z,64.17
2018-09-18T07:56:11.861Z,63.56
2018-09-18T07:57:12.027Z,60.62
2018-09-18T07:58:11.746Z,61.50
2018-09-18T07:59:11.740Z,61.27
2018-09-18T08:00:11.728Z,59.26
2018-09-18T08:01:11.715Z,57.93
2018-09-18T08:02:11.979Z,59.08
2018-09-18T08:03:11.703Z,59.88
2018-09-18T08:04:11.708Z,56.45
2018-09-18T08:05:11.917Z,55.82
2018-09-18T08:06:11.701Z,57.19
2018-09-18T08:07:11.859Z,58.69
2018-09-18T08:08:11.641Z,56.57
2018-09-18T08:09:11.637Z,55.17
2018-09-18T08:10:11.638Z,55.24
2018-09-18T08:11:11.665Z,53.24
2018-09-18T08:12:11.606Z,51.40
2018-09-18T08:13:11.608Z,51.29
2018-09-18T08:14:11.578Z,52.07
2018-09-18T08:15:11.576Z,50.55
2018-09-18T08:16:11.574Z,52.12
2018-09-18T08:17:11.709Z,50.82
2018-09-18T08:18:20.186Z,49.21
2018-09-18T08:19:11.860Z,46.49
2018-09-18T08:20:20.094Z,47.17
2018-09-18T08:21:23.764Z,47.25
2018-09-18T08:22:23.083Z,47.34
2018-09-18T08:23:22.182Z,45.36
2018-09-18T08:24:22.093Z,46.42
2018-09-18T08:25:22.728Z,45.11
2018-09-18T08:26:11.636Z,43.32
2018-09-18T08:27:11.546Z,45.31
2018-09-18T08:28:11.483Z,44.40
2018-09-18T08:29:11.845Z,43.90
2018-09-18T08:30:11.486Z,43.98
2018-09-18T08:31:11.515Z,44.57
2018-09-18T08:32:11.450Z,42.66
2018-09-18T08:33:11.492Z,42.77
2018-09-18T08:34:11.424Z,43.64
2018-09-18T08:36:24.106Z,42.25
2018-09-18T08:37:23.722Z,43.64
2018-09-18T08:38:23.729Z,42.82
2018-09-18T08:39:23.802Z,41.14
2018-09-18T08:40:23.721Z,42.43
2018-09-18T08:41:23.639Z,41.73
2018-09-18T08:42:23.549Z,41.91
2018-09-18T08:43:23.562Z,41.61
2018-09-18T08:44:23.569Z,42.50
2018-09-18T08:45:23.551Z,42.38
2018-09-18T08:46:23.480Z,41.89
2018-09-18T08:47:23.538Z,41.67
2018-09-18T08:48:23.483Z,41.08
2018-09-18T08:49:23.466Z,40.78
2018-09-18T08:50:23.511Z,39.79
2018-09-18T08:51:23.566Z,40.39
2018-09-18T08:52:23.499Z,40.88
2018-09-18T08:53:23.512Z,40.29
2018-09-18T08:54:23.652Z,39.50
2018-09-18T08:55:23.533Z,40.37
2018-09-18T08:56:23.500Z,41.65
2018-09-18T08:57:23.380Z,40.64
2018-09-18T08:58:23.369Z,39.75
2018-09-18T08:59:23.394Z,39.95
2018-09-18T09:00:23.336Z,39.24
2018-09-18T09:01:23.324Z,39.34
2018-09-18T09:02:23.459Z,39.43
2018-09-18T09:03:23.344Z,38.25
2018-09-18T09:04:23.437Z,38.94
2018-09-18T09:05:23.467Z,38.75
2018-09-18T09:06:23.329Z,39.24
2018-09-18T09:07:23.314Z,41.10
2018-09-18T09:08:23.310Z,39.42
2018-09-18T09:09:23.393Z,38.82
2018-09-18T09:10:23.408Z,38.23
2018-09-18T09:11:23.280Z,38.04
2018-09-18T09:12:23.245Z,38.53
2018-09-18T09:13:23.285Z,38.63
2018-09-18T09:14:23.302Z,38.12
2018-09-18T09:15:23.193Z,39.40
2018-09-18T09:16:23.242Z,38.20
2018-09-18T09:17:23.209Z,37.11
2018-09-18T09:18:23.245Z,36.61
2018-09-18T09:19:23.207Z,37.51
2018-09-18T09:20:23.163Z,38.39
2018-09-18T09:21:23.214Z,38.39
2018-09-18T09:22:23.220Z,38.59
2018-09-18T09:23:23.135Z,39.26
2018-09-18T09:24:23.183Z,37.68
2018-09-18T09:25:23.105Z,37.98
2018-09-18T09:26:23.204Z,37.87
2018-09-18T09:27:23.105Z,37.96
2018-09-18T09:28:23.190Z,36.76
2018-09-18T09:29:23.160Z,38.64
2018-09-18T09:30:23.117Z,37.05
2018-09-18T09:31:23.128Z,36.94
2018-09-18T09:32:23.156Z,38.51
2018-09-18T09:33:23.052Z,37.81
2018-09-18T09:34:23.053Z,37.49
2018-09-18T09:35:23.061Z,36.80
2018-09-18T09:36:23.020Z,37.08
2018-09-18T09:37:23.017Z,35.71
2018-09-18T09:38:22.999Z,36.20
2018-09-18T09:39:22.980Z,37.08
2018-09-18T09:40:23.036Z,34.82
2018-09-18T09:41:22.953Z,35.80
2018-09-18T09:42:22.975Z,35.90
2018-09-18T09:43:22.919Z,34.33
2018-09-18T09:44:23.519Z,34.74
2018-09-18T09:45:23.025Z,34.64
2018-09-18T09:46:22.917Z,36.32
2018-09-18T09:47:22.921Z,34.74
2018-09-18T09:48:22.940Z,34.34
2018-09-18T09:49:22.866Z,35.05
2018-09-18T09:50:22.883Z,36.82
2018-09-18T09:51:22.956Z,35.54
2018-09-18T09:52:22.895Z,34.34
2018-09-18T09:53:22.876Z,34.56
2018-09-18T09:54:22.814Z,34.36
2018-09-18T09:55:22.841Z,34.75
2018-09-18T09:56:22.852Z,34.27
2018-09-18T09:57:22.806Z,34.06
2018-09-18T09:58:22.869Z,34.75
2018-09-18T09:59:22.758Z,34.86
2018-09-18T10:00:22.775Z,34.36
2018-09-18T10:01:22.796Z,34.94
2018-09-18T10:02:22.737Z,34.74
2018-09-18T10:03:22.805Z,35.72
2018-09-18T10:04:22.731Z,34.84
2018-09-18T10:05:24.418Z,34.84
2018-09-18T10:06:22.690Z,34.84
2018-09-18T10:07:22.679Z,34.54
2018-09-18T10:08:22.752Z,34.25
2018-09-18T10:09:22.682Z,33.86
2018-09-18T10:10:22.734Z,35.23
2018-09-18T10:11:22.632Z,33.86
2018-09-18T10:12:22.632Z,34.74
2018-09-18T10:13:22.653Z,33.95
2018-09-18T10:14:22.629Z,34.05
2018-09-18T10:15:22.619Z,33.07
2018-09-18T10:16:22.596Z,33.07
2018-09-18T10:17:22.575Z,33.56
2018-09-18T10:18:22.670Z,34.44
2018-09-18T10:19:22.549Z,32.67
2018-09-18T10:20:22.554Z,34.15
2018-09-18T10:21:22.656Z,32.28
2018-09-18T10:22:22.586Z,32.77
2018-09-18T10:23:22.516Z,33.17
2018-09-18T10:24:22.544Z,34.15
2018-09-18T10:25:22.496Z,33.56
2018-09-18T10:26:22.602Z,33.36
2018-09-18T10:27:22.480Z,33.94
2018-09-18T10:28:22.699Z,34.94
2018-09-18T10:29:22.523Z,34.25
2018-09-18T10:30:22.460Z,35.03
2018-09-18T10:31:22.505Z,35.33
2018-09-18T10:32:22.547Z,35.13
2018-09-18T10:33:22.455Z,35.02
2018-09-18T10:34:22.450Z,35.02
2018-09-18T10:35:22.432Z,35.71
2018-09-18T10:36:22.470Z,36.00
2018-09-18T10:37:22.475Z,36.41
2018-09-18T10:38:22.392Z,36.00
2018-09-18T10:39:22.428Z,36.88
2018-09-18T10:40:22.441Z,36.10
2018-09-18T10:41:22.465Z,36.69
2018-09-18T10:42:22.362Z,36.99
2018-09-18T10:43:22.360Z,36.40
2018-09-18T10:44:22.322Z,36.28
2018-09-18T10:45:22.398Z,36.87
2018-09-18T10:46:22.354Z,36.47
2018-09-18T10:47:22.301Z,37.26
2018-09-18T10:48:22.315Z,36.77
2018-09-18T10:49:22.474Z,36.77
2018-09-18T10:50:22.270Z,37.15
2018-09-18T10:51:22.282Z,37.05
2018-09-18T10:52:22.382Z,37.05
2018-09-18T10:53:22.336Z,37.84
2018-09-18T10:54:22.329Z,37.24
2018-09-18T10:55:22.289Z,38.32
2018-09-18T10:56:22.240Z,37.34
2018-09-18T10:57:22.213Z,37.05
2018-09-18T10:58:22.266Z,36.55
2018-09-18T10:59:22.932Z,36.65
2018-09-18T11:00:32.792Z,37.54
2018-09-18T11:01:22.348Z,37.15
2018-09-18T11:02:22.279Z,37.54
2018-09-18T11:03:33.336Z,37.15
2018-09-18T11:04:31.467Z,38.01
2018-09-18T11:05:36.150Z,37.92
2018-09-18T11:08:43.403Z,39.27
2018-09-18T11:09:42.772Z,37.80
2018-09-18T11:10:42.945Z,38.19
2018-09-18T11:11:42.881Z,38.98
2018-09-18T11:12:42.958Z,39.29
2018-09-18T11:13:42.761Z,39.27
2018-09-18T11:14:42.856Z,39.27
2018-09-18T11:15:42.820Z,39.47
2018-09-18T11:16:42.803Z,39.27
2018-09-18T11:17:42.706Z,38.78
2018-09-18T11:18:42.691Z,38.98
2018-09-18T11:19:42.812Z,39.45
2018-09-18T11:20:42.665Z,39.54
2018-09-18T11:21:42.734Z,39.45
2018-09-18T11:22:42.759Z,39.33
2018-09-18T11:23:42.791Z,38.17
2018-09-18T11:24:42.721Z,39.15
2018-09-18T11:25:44.506Z,38.46
2018-09-18T11:26:43.488Z,38.96
2018-09-18T11:27:43.597Z,39.03
2018-09-18T11:28:42.598Z,38.45
2018-09-18T11:29:42.588Z,38.74
2018-09-18T11:30:42.626Z,39.23
2018-09-18T11:31:42.583Z,38.84
2018-09-18T11:32:42.660Z,38.54
2018-09-18T11:33:42.607Z,39.53
2018-09-18T11:34:42.715Z,38.84
2018-09-18T11:35:42.552Z,39.80
2018-09-18T11:36:42.559Z,38.33
2018-09-18T11:37:42.515Z,38.54
2018-09-18T11:38:43.408Z,39.23
2018-09-18T11:39:42.503Z,38.85
2018-09-18T11:40:42.565Z,38.85
2018-09-18T11:41:42.508Z,39.33
2018-09-18T11:42:42.498Z,39.92
2018-09-18T11:43:42.599Z,38.53
2018-09-18T11:44:42.474Z,38.43
2018-09-18T11:45:42.538Z,38.82
2018-09-18T11:46:42.486Z,38.72
2018-09-18T11:47:42.455Z,38.23
2018-09-18T11:48:42.442Z,39.01
2018-09-18T11:49:42.412Z,38.43
2018-09-18T11:50:42.398Z,39.41
2018-09-18T11:51:42.390Z,39.01
2018-09-18T11:52:42.411Z,38.72
2018-09-18T11:53:42.393Z,38.23
2018-09-18T11:54:42.369Z,38.23
2018-09-18T11:55:42.361Z,38.43
2018-09-18T11:56:42.369Z,37.94
2018-09-18T11:57:42.378Z,39.01
2018-09-18T11:58:43.151Z,39.31
2018-09-18T11:59:42.342Z,38.43
2018-09-18T12:00:42.361Z,37.74
2018-09-18T12:01:42.300Z,37.54
2018-09-18T12:02:42.329Z,38.53
2018-09-18T12:03:42.285Z,38.33
2018-09-18T12:04:42.311Z,37.94
2018-09-18T12:05:42.272Z,38.31
2018-09-18T12:06:42.271Z,37.25
2018-09-18T12:07:42.439Z,36.84
2018-09-18T12:08:42.333Z,37.33
2018-09-18T12:09:42.343Z,37.73
2018-09-18T12:10:42.281Z,37.52
2018-09-18T12:11:42.214Z,37.04
2018-09-18T12:12:42.257Z,36.72
2018-09-18T12:13:42.225Z,36.45
2018-09-18T12:14:42.183Z,37.73
2018-09-18T12:15:42.219Z,37.02
2018-09-18T12:16:42.180Z,36.43
2018-09-18T12:17:42.202Z,36.71
2018-09-18T12:18:42.150Z,38.47
2018-09-18T12:19:42.182Z,37.19
2018-09-18T12:20:42.488Z,36.43
2018-09-18T12:21:42.184Z,36.71
2018-09-18T12:22:42.130Z,36.41
2018-09-18T12:23:42.099Z,35.44
2018-09-18T12:24:57.368Z,35.44
2018-09-18T12:27:07.591Z,34.83
2018-09-18T12:29:18.503Z,34.42
2018-09-18T12:30:18.655Z,34.42
2018-09-18T12:31:18.220Z,34.74
2018-09-18T12:32:18.230Z,35.44
2018-09-18T12:33:18.102Z,35.34
2018-09-18T12:34:17.904Z,35.53
2018-09-18T12:35:17.898Z,34.05
2018-09-18T12:36:17.952Z,33.85
2018-09-18T12:37:17.898Z,33.75
2018-09-18T12:38:17.906Z,34.05
2018-09-18T12:39:17.873Z,31.78
2018-09-18T12:40:17.867Z,31.60
2018-09-18T12:41:17.904Z,32.19
2018-09-18T12:42:17.936Z,32.86
2018-09-18T12:43:17.855Z,31.98
2018-09-18T12:44:17.819Z,32.17
2018-09-18T12:45:17.810Z,31.57
2018-09-18T12:46:17.810Z,31.77
2018-09-18T12:47:17.825Z,31.88
2018-09-18T12:48:17.933Z,32.06
2018-09-18T12:49:17.917Z,31.77
2018-09-18T12:50:17.935Z,32.45
2018-09-18T12:51:17.786Z,31.36
2018-09-18T12:52:17.869Z,32.82
2018-09-18T12:53:17.807Z,31.95
2018-09-18T12:54:17.747Z,31.45
2018-09-18T12:55:17.717Z,31.64
2018-09-18T12:56:17.739Z,31.72
2018-09-18T12:57:18.036Z,31.25
2018-09-18T12:58:17.757Z,30.97
2018-09-18T12:59:17.765Z,31.46
2018-09-18T13:00:17.751Z,31.36
2018-09-18T13:01:17.678Z,32.62
2018-09-18T13:02:17.743Z,32.23
2018-09-18T13:03:17.697Z,31.54
2018-09-18T13:04:17.784Z,31.74
2018-09-18T13:05:17.632Z,31.75
2018-09-18T13:06:17.824Z,32.34
2018-09-18T13:07:18.218Z,31.45
2018-09-18T13:08:17.608Z,31.84
2018-09-18T13:09:17.623Z,31.84
2018-09-18T13:10:17.577Z,32.81
2018-09-18T13:11:17.561Z,31.25
2018-09-18T13:12:20.623Z,31.15
2018-09-18T13:13:17.557Z,31.45
2018-09-18T13:14:17.682Z,31.74
2018-09-18T13:15:17.619Z,31.15
2018-09-18T13:16:17.582Z,31.26
2018-09-18T13:17:18.784Z,30.87
2018-09-18T13:18:17.713Z,31.67
2018-09-18T13:19:17.526Z,31.48
2018-09-18T13:20:17.712Z,31.57
2018-09-18T13:21:17.768Z,31.67
2018-09-18T13:22:17.475Z,31.36
2018-09-18T13:23:17.460Z,31.07
2018-09-18T13:24:17.561Z,31.65
2018-09-18T13:25:17.638Z,30.76
2018-09-18T13:26:17.629Z,31.35